createdAt,value
2018-02-27T00:00:16.921Z,6.3
2018-02-27T00:01:18.570Z,7.4
2018-02-27T00:02:20.210Z,6.6
2018-02-27T00:03:21.852Z,5.7
2018-02-27T00:04:23.501Z,6.1
2018-02-27T00:05:25.147Z,5.8
2018-02-27T00:06:26.794Z,6.7
2018-02-27T00:07:28.442Z,7.2
2018-02-27T00:08:30.093Z,7.0
2018-02-27T00:09:31.732Z,6.3
2018-02-27T00:10:33.382Z,6.6
2018-02-27T00:11:35.032Z,7.0
2018-02-27T00:12:36.683Z,7.4
2018-02-27T00:13:38.314Z,6.9
2018-02-27T00:14:39.960Z,6.6
2018-02-27T00:15:41.613Z,6.4
2018-02-27T00:16:43.249Z,6.8
2018-02-27T00:17:44.899Z,7.2
2018-02-27T00:18:46.543Z,6.7
2018-02-27T00:19:48.190Z,7.1
2018-02-27T00:20:49.834Z,7.9
2018-02-27T00:21:51.479Z,6.3
2018-02-27T00:22:53.221Z,6.9
2018-02-27T00:23:54.876Z,6.5
2018-02-27T00:24:56.522Z,7.3
2018-02-27T00:25:58.159Z,7.6
2018-02-27T00:26:59.804Z,7.2
2018-02-27T00:28:01.448Z,6.8
2018-02-27T00:29:03.136Z,7.4
2018-02-27T00:30:04.735Z,7.3
2018-02-27T00:31:06.380Z,7.6
2018-02-27T00:32:08.017Z,7.9
2018-02-27T00:33:09.661Z,8.0
2018-02-27T00:34:11.310Z,7.5
2018-02-27T00:35:12.970Z,7.6
2018-02-27T00:36:14.608Z,7.7
2018-02-27T00:37:16.257Z,7.5
2018-02-27T00:38:17.912Z,7.5
2018-02-27T00:39:19.555Z,7.5
2018-02-27T00:40:21.195Z,7.1
2018-02-27T00:41:22.839Z,7.9
2018-02-27T00:42:24.481Z,7.6
2018-02-27T00:43:26.131Z,7.6
2018-02-27T00:44:27.765Z,8.1
2018-02-27T00:45:29.400Z,7.8
2018-02-27T00:46:31.042Z,7.7
2018-02-27T00:47:32.690Z,7.0
2018-02-27T00:48:34.327Z,8.1
2018-02-27T00:49:35.970Z,7.4
2018-02-27T00:50:37.618Z,7.8
2018-02-27T00:51:39.261Z,7.8
2018-02-27T00:52:40.895Z,7.7
2018-02-27T00:53:42.536Z,7.3
2018-02-27T00:54:44.178Z,7.4
2018-02-27T00:55:45.823Z,7.6
2018-02-27T00:56:47.469Z,7.8
2018-02-27T00:57:49.112Z,7.2
2018-02-27T00:58:50.759Z,7.3
2018-02-27T00:59:52.396Z,7.2
2018-02-27T01:00:54.046Z,7.2
2018-02-27T01:01:55.691Z,7.2
2018-02-27T01:02:57.328Z,7.5
2018-02-27T01:03:58.984Z,7.5
2018-02-27T01:05:00.627Z,7.6
2018-02-27T01:06:02.270Z,6.9
2018-02-27T01:07:03.909Z,7.1
2018-02-27T01:08:05.553Z,7.3
2018-02-27T01:09:07.202Z,6.9
2018-02-27T01:10:08.846Z,7.4
2018-02-27T01:11:10.493Z,7.3
2018-02-27T01:12:12.130Z,7.3
2018-02-27T01:13:13.774Z,7.6
2018-02-27T01:14:15.410Z,7.3
2018-02-27T01:15:17.055Z,7.0
2018-02-27T01:16:18.701Z,6.9
2018-02-27T01:17:20.345Z,6.8
2018-02-27T01:18:21.987Z,6.5
2018-02-27T01:19:23.621Z,6.7
2018-02-27T01:20:25.267Z,7.0
2018-02-27T01:21:26.934Z,7.3
2018-02-27T01:22:28.576Z,6.4
2018-02-27T01:23:30.226Z,6.5
2018-02-27T01:24:31.871Z,6.7
2018-02-27T01:25:33.526Z,7.1
2018-02-27T01:26:35.162Z,7.4
2018-02-27T01:27:36.794Z,6.5
2018-02-27T01:28:39.357Z,7.1
2018-02-27T01:29:41.003Z,7.6
2018-02-27T01:30:42.681Z,6.9
2018-02-27T01:31:44.316Z,7.2
2018-02-27T01:32:45.950Z,7.0
2018-02-27T01:33:47.584Z,6.5
2018-02-27T01:34:49.227Z,7.0
2018-02-27T01:35:50.874Z,7.3
2018-02-27T01:36:52.518Z,7.5
2018-02-27T01:37:54.161Z,7.8
2018-02-27T01:38:55.806Z,7.6
2018-02-27T01:39:57.452Z,7.3
2018-02-27T01:40:59.092Z,8.3
2018-02-27T01:42:00.736Z,8.0
2018-02-27T01:43:02.393Z,8.0
2018-02-27T01:44:04.037Z,8.8
2018-02-27T01:45:05.682Z,7.8
2018-02-27T01:46:07.320Z,7.8
2018-02-27T01:47:08.964Z,7.1
2018-02-27T01:48:10.614Z,7.7
2018-02-27T01:49:12.261Z,7.7
2018-02-27T01:50:13.901Z,8.0
2018-02-27T01:51:15.538Z,7.7
2018-02-27T01:52:17.181Z,7.9
2018-02-27T01:53:18.835Z,7.8
2018-02-27T01:54:20.482Z,7.2
2018-02-27T01:55:22.126Z,7.9
2018-02-27T01:56:23.759Z,7.4
2018-02-27T01:57:25.403Z,6.9
2018-02-27T01:58:27.049Z,7.4
2018-02-27T01:59:28.692Z,6.4
2018-02-27T02:00:30.340Z,7.1
2018-02-27T02:01:31.994Z,7.2
2018-02-27T02:02:33.637Z,6.8
2018-02-27T02:03:35.285Z,6.6
2018-02-27T02:04:36.923Z,7.0
2018-02-27T02:05:38.570Z,7.6
2018-02-27T02:06:40.203Z,7.4
2018-02-27T02:07:41.861Z,6.9
2018-02-27T02:08:43.506Z,7.0
2018-02-27T02:09:45.151Z,7.1
2018-02-27T02:10:46.793Z,7.0
2018-02-27T02:11:48.433Z,6.4
2018-02-27T02:12:50.070Z,6.2
2018-02-27T02:13:51.718Z,6.6
2018-02-27T02:14:53.361Z,6.4
2018-02-27T02:15:55.006Z,5.6
2018-02-27T02:16:56.656Z,5.9
2018-02-27T02:17:58.313Z,5.8
2018-02-27T02:18:59.949Z,6.0
2018-02-27T02:20:01.592Z,6.0
2018-02-27T02:21:03.234Z,6.2
2018-02-27T02:22:04.883Z,5.9
2018-02-27T02:23:06.530Z,5.9
2018-02-27T02:24:08.167Z,6.3
2018-02-27T02:25:09.811Z,5.2
2018-02-27T02:26:11.453Z,5.8
2018-02-27T02:27:13.088Z,5.8
2018-02-27T02:28:14.739Z,6.0
2018-02-27T02:29:16.386Z,6.1
2018-02-27T02:30:18.029Z,6.0
2018-02-27T02:31:19.658Z,5.7
2018-02-27T02:32:21.300Z,5.6
2018-02-27T02:33:22.953Z,5.9
2018-02-27T02:34:24.594Z,5.9
2018-02-27T02:35:26.239Z,5.4
2018-02-27T02:36:27.887Z,5.3
2018-02-27T02:37:29.528Z,6.0
2018-02-27T02:38:31.165Z,5.7
2018-02-27T02:39:32.801Z,5.9
2018-02-27T02:40:34.447Z,5.6
2018-02-27T02:41:36.095Z,5.6
2018-02-27T02:42:37.741Z,5.2
2018-02-27T02:43:39.384Z,6.0
2018-02-27T02:44:41.035Z,5.9
2018-02-27T02:45:42.672Z,5.7
2018-02-27T02:46:44.330Z,5.9
2018-02-27T02:47:45.955Z,5.9
2018-02-27T02:48:47.602Z,5.7
2018-02-27T02:49:49.257Z,6.6
2018-02-27T02:50:50.903Z,5.7
2018-02-27T02:51:52.542Z,6.6
2018-02-27T02:52:54.184Z,6.2
2018-02-27T02:53:55.816Z,5.5
2018-02-27T02:54:57.461Z,6.0
2018-02-27T03:01:22.448Z,4.9
2018-02-27T03:02:24.080Z,5.5
2018-02-27T03:03:25.714Z,6.0
2018-02-27T03:04:27.356Z,6.5
2018-02-27T03:05:28.993Z,6.8
2018-02-27T03:06:30.633Z,6.2
2018-02-27T03:07:32.275Z,6.5
2018-02-27T03:08:33.917Z,6.7
2018-02-27T03:09:35.552Z,6.9
2018-02-27T03:10:37.191Z,6.1
2018-02-27T03:11:38.831Z,6.6
2018-02-27T03:12:40.471Z,6.6
2018-02-27T03:13:42.118Z,6.3
2018-02-27T03:14:43.758Z,6.8
2018-02-27T03:15:45.395Z,6.8
2018-02-27T03:16:47.043Z,7.3
2018-02-27T03:17:48.678Z,6.5
2018-02-27T03:18:50.319Z,6.4
2018-02-27T03:19:51.965Z,6.0
2018-02-27T03:20:53.609Z,6.9
2018-02-27T03:21:55.258Z,7.1
2018-02-27T03:22:56.909Z,6.4
2018-02-27T03:23:58.552Z,7.0
2018-02-27T03:25:00.192Z,6.5
2018-02-27T03:26:01.838Z,6.7
2018-02-27T03:27:03.481Z,6.4
2018-02-27T03:28:05.120Z,6.6
2018-02-27T03:29:06.771Z,6.3
2018-02-27T03:30:08.405Z,6.5
2018-02-27T03:31:10.047Z,6.8
2018-02-27T03:32:11.689Z,6.5
2018-02-27T03:33:13.331Z,6.7
2018-02-27T03:34:14.969Z,6.7
2018-02-27T03:35:16.610Z,6.7
2018-02-27T03:36:18.258Z,6.4
2018-02-27T03:37:19.897Z,6.6
2018-02-27T03:38:21.536Z,7.5
2018-02-27T03:39:23.175Z,6.7
2018-02-27T03:40:24.823Z,6.9
2018-02-27T03:41:26.465Z,7.5
2018-02-27T03:42:28.114Z,6.8
2018-02-27T03:43:29.757Z,7.5
2018-02-27T03:44:31.391Z,6.8
2018-02-27T03:45:33.046Z,7.9
2018-02-27T03:46:34.692Z,7.1
2018-02-27T03:47:36.338Z,7.1
2018-02-27T03:48:37.977Z,7.1
2018-02-27T03:49:39.623Z,7.2
2018-02-27T03:50:41.263Z,7.4
2018-02-27T03:51:42.913Z,7.6
2018-02-27T03:52:44.549Z,8.1
2018-02-27T03:53:46.198Z,7.5
2018-02-27T03:54:47.831Z,8.2
2018-02-27T03:55:49.470Z,7.7
2018-02-27T03:56:51.116Z,7.0
2018-02-27T03:57:52.766Z,7.4
2018-02-27T03:58:54.407Z,7.8
2018-02-27T03:59:56.048Z,7.7
2018-02-27T04:00:57.708Z,7.7
2018-02-27T04:01:59.399Z,7.4
2018-02-27T04:03:00.992Z,7.5
2018-02-27T04:04:02.640Z,8.0
2018-02-27T04:05:04.283Z,7.7
2018-02-27T04:06:05.921Z,7.7
2018-02-27T04:07:07.558Z,7.0
2018-02-27T04:08:09.203Z,7.2
2018-02-27T04:09:10.844Z,7.5
2018-02-27T04:10:12.540Z,8.3
2018-02-27T04:11:14.185Z,8.2
2018-02-27T04:12:15.830Z,8.7
2018-02-27T04:13:17.465Z,9.0
2018-02-27T04:14:19.114Z,8.2
2018-02-27T04:15:20.752Z,8.7
2018-02-27T04:16:22.392Z,9.6
2018-02-27T04:17:24.040Z,9.7
2018-02-27T04:18:25.686Z,8.6
2018-02-27T04:19:27.327Z,8.8
2018-02-27T04:20:28.971Z,8.8
2018-02-27T04:21:30.611Z,8.4
2018-02-27T04:22:32.254Z,8.7
2018-02-27T04:23:33.899Z,8.0
2018-02-27T04:24:35.544Z,8.1
2018-02-27T04:25:37.188Z,8.7
2018-02-27T04:26:38.835Z,8.4
2018-02-27T04:27:40.483Z,8.4
2018-02-27T04:28:42.119Z,8.3
2018-02-27T04:29:43.762Z,8.5
2018-02-27T04:30:45.404Z,8.5
2018-02-27T04:31:47.047Z,9.2
2018-02-27T04:32:48.687Z,9.2
2018-02-27T04:33:50.329Z,8.2
2018-02-27T04:34:51.978Z,8.5
2018-02-27T04:35:53.611Z,8.3
2018-02-27T04:36:55.256Z,8.5
2018-02-27T04:37:56.900Z,8.4
2018-02-27T04:38:58.543Z,9.7
2018-02-27T04:40:00.195Z,9.5
2018-02-27T04:41:01.834Z,9.1
2018-02-27T04:42:03.493Z,9.9
2018-02-27T04:43:05.113Z,8.7
2018-02-27T04:44:06.757Z,9.0
2018-02-27T04:45:08.388Z,9.0
2018-02-27T04:46:10.038Z,9.4
2018-02-27T04:47:11.673Z,8.2
2018-02-27T04:48:13.319Z,8.6
2018-02-27T04:49:14.985Z,8.6
2018-02-27T04:50:16.617Z,8.2
2018-02-27T04:51:18.264Z,8.3
2018-02-27T04:52:19.899Z,7.8
2018-02-27T04:53:21.551Z,9.0
2018-02-27T04:54:23.192Z,9.1
2018-02-27T04:55:24.851Z,9.2
2018-02-27T04:56:26.482Z,9.3
2018-02-27T04:57:28.128Z,12.8
2018-02-27T04:58:29.766Z,9.5
2018-02-27T04:59:31.405Z,9.0
2018-02-27T05:00:33.085Z,9.4
2018-02-27T05:01:34.725Z,10.1
2018-02-27T05:02:36.377Z,10.0
2018-02-27T05:03:38.021Z,9.3
2018-02-27T05:04:39.651Z,9.0
2018-02-27T05:05:41.289Z,8.7
2018-02-27T05:06:42.930Z,8.9
2018-02-27T05:07:44.582Z,8.4
2018-02-27T05:08:46.214Z,10.7
2018-02-27T05:09:47.852Z,10.0
2018-02-27T05:10:49.500Z,9.6
2018-02-27T05:11:51.147Z,8.9
2018-02-27T05:12:52.792Z,8.9
2018-02-27T05:13:54.437Z,9.0
2018-02-27T05:14:56.076Z,10.1
2018-02-27T05:15:57.727Z,29.8
2018-02-27T05:16:59.377Z,26.6
2018-02-27T05:18:01.022Z,10.8
2018-02-27T05:19:02.668Z,11.0
2018-02-27T05:20:04.312Z,10.2
2018-02-27T05:21:05.957Z,13.8
2018-02-27T05:22:07.602Z,11.4
2018-02-27T05:23:09.265Z,11.1
2018-02-27T05:24:10.898Z,12.1
2018-02-27T05:25:12.536Z,11.9
2018-02-27T05:26:14.178Z,11.3
2018-02-27T05:27:15.819Z,10.1
2018-02-27T05:28:17.466Z,8.7
2018-02-27T05:29:19.097Z,9.3
2018-02-27T05:30:20.741Z,9.4
2018-02-27T05:31:22.381Z,9.4
2018-02-27T05:32:24.018Z,9.8
2018-02-27T05:33:25.667Z,8.8
2018-02-27T05:34:27.307Z,9.1
2018-02-27T05:35:29.023Z,13.5
2018-02-27T05:36:30.667Z,11.1
2018-02-27T05:37:32.300Z,14.0
2018-02-27T05:38:33.951Z,11.7
2018-02-27T05:39:35.642Z,10.0
2018-02-27T05:40:37.283Z,12.4
2018-02-27T05:41:38.920Z,13.0
2018-02-27T05:42:40.567Z,16.0
2018-02-27T05:43:42.217Z,15.0
2018-02-27T05:44:43.860Z,12.5
2018-02-27T05:45:45.498Z,10.5
2018-02-27T05:46:47.145Z,12.2
2018-02-27T05:47:48.787Z,14.9
2018-02-27T05:48:50.506Z,14.6
2018-02-27T05:49:52.145Z,13.4
2018-02-27T05:50:53.783Z,10.1
2018-02-27T05:51:55.422Z,9.6
2018-02-27T05:52:57.081Z,10.7
2018-02-27T05:53:58.729Z,11.9
2018-02-27T05:55:00.380Z,10.9
2018-02-27T05:56:02.024Z,10.0
2018-02-27T05:57:03.667Z,10.1
2018-02-27T05:58:05.305Z,10.0
2018-02-27T05:59:06.970Z,12.3
2018-02-27T06:00:08.611Z,14.6
2018-02-27T06:01:10.257Z,13.1
2018-02-27T06:02:11.896Z,11.0
2018-02-27T06:03:13.542Z,12.9
2018-02-27T06:04:15.217Z,18.5
2018-02-27T06:05:16.866Z,18.9
2018-02-27T06:06:18.503Z,17.0
2018-02-27T06:07:20.140Z,12.3
2018-02-27T06:08:21.858Z,9.9
2018-02-27T06:09:23.570Z,10.9
2018-02-27T06:10:25.107Z,13.1
2018-02-27T06:11:26.783Z,10.7
2018-02-27T06:12:28.430Z,11.7
2018-02-27T06:13:30.064Z,10.9
2018-02-27T06:14:31.766Z,11.7
2018-02-27T06:15:33.413Z,11.2
2018-02-27T06:16:35.052Z,11.4
2018-02-27T06:17:36.697Z,11.4
2018-02-27T06:18:38.336Z,12.1
2018-02-27T06:19:39.986Z,13.3
2018-02-27T06:20:41.631Z,9.8
2018-02-27T06:21:43.268Z,10.4
2018-02-27T06:22:44.973Z,10.4
2018-02-27T06:23:46.566Z,12.1
2018-02-27T06:24:48.209Z,11.4
2018-02-27T06:25:49.859Z,10.1
2018-02-27T06:26:51.511Z,11.1
2018-02-27T06:27:53.148Z,10.3
2018-02-27T06:28:54.805Z,9.9
2018-02-27T06:29:56.452Z,10.2
2018-02-27T06:30:58.090Z,10.3
2018-02-27T06:31:59.740Z,10.6
2018-02-27T06:33:01.385Z,11.0
2018-02-27T06:34:03.036Z,10.8
2018-02-27T06:35:04.691Z,10.3
2018-02-27T06:36:06.351Z,9.8
2018-02-27T06:37:07.983Z,9.2
2018-02-27T06:38:09.633Z,8.6
2018-02-27T06:39:11.296Z,9.9
2018-02-27T06:40:12.937Z,9.2
2018-02-27T06:41:14.584Z,8.8
2018-02-27T06:42:16.229Z,8.9
2018-02-27T06:43:17.880Z,8.6
2018-02-27T06:44:19.530Z,8.6
2018-02-27T06:45:21.176Z,8.5
2018-02-27T06:46:22.823Z,8.0
2018-02-27T06:47:24.468Z,7.7
2018-02-27T06:48:26.118Z,7.4
2018-02-27T06:49:27.772Z,7.3
2018-02-27T06:50:29.417Z,7.6
2018-02-27T06:51:31.089Z,7.6
2018-02-27T06:52:32.727Z,7.2
2018-02-27T06:53:34.388Z,7.8
2018-02-27T06:54:36.036Z,7.4
2018-02-27T07:00:53.665Z,5.2
2018-02-27T07:01:55.301Z,5.6
2018-02-27T07:02:56.979Z,6.3
2018-02-27T07:03:58.620Z,7.5
2018-02-27T07:05:00.255Z,7.4
2018-02-27T07:06:01.906Z,7.7
2018-02-27T07:07:03.585Z,6.3
2018-02-27T07:08:05.238Z,6.6
2018-02-27T07:09:06.891Z,6.6
2018-02-27T07:10:08.633Z,7.0
2018-02-27T07:11:10.317Z,6.7
2018-02-27T07:12:12.117Z,6.6
2018-02-27T07:13:13.764Z,6.2
2018-02-27T07:14:15.406Z,5.8
2018-02-27T07:15:17.049Z,6.6
2018-02-27T07:16:18.694Z,7.1
2018-02-27T07:17:20.344Z,7.4
2018-02-27T07:18:21.988Z,6.9
2018-02-27T07:19:23.638Z,7.1
2018-02-27T07:20:25.314Z,6.9
2018-02-27T07:21:26.966Z,7.2
2018-02-27T07:22:28.616Z,6.7
2018-02-27T07:23:30.258Z,7.2
2018-02-27T07:24:31.911Z,6.7
2018-02-27T07:25:33.563Z,6.9
2018-02-27T07:26:35.216Z,7.0
2018-02-27T07:27:36.869Z,6.6
2018-02-27T07:28:38.522Z,6.1
2018-02-27T07:29:40.186Z,7.2
2018-02-27T07:30:41.848Z,6.6
2018-02-27T07:31:43.494Z,7.3
2018-02-27T07:32:45.155Z,8.9
2018-02-27T07:33:46.807Z,7.5
2018-02-27T07:34:48.459Z,6.5
2018-02-27T07:35:50.113Z,7.0
2018-02-27T07:36:51.765Z,7.1
2018-02-27T07:37:53.429Z,5.4
2018-02-27T07:38:55.097Z,6.7
2018-02-27T07:39:56.759Z,5.8
2018-02-27T07:40:58.407Z,6.5
2018-02-27T07:42:00.060Z,6.7
2018-02-27T07:43:01.723Z,5.9
2018-02-27T07:44:03.399Z,5.7
2018-02-27T07:45:05.053Z,6.3
2018-02-27T07:46:06.704Z,5.6
2018-02-27T07:47:08.358Z,6.1
2018-02-27T07:48:10.013Z,7.3
2018-02-27T07:49:11.667Z,5.6
2018-02-27T07:50:13.318Z,6.1
2018-02-27T07:51:14.969Z,5.7
2018-02-27T07:52:16.629Z,5.6
2018-02-27T07:53:18.287Z,5.2
2018-02-27T07:54:19.940Z,4.7
2018-02-27T07:55:21.604Z,5.3
2018-02-27T07:56:23.255Z,5.0
2018-02-27T07:57:24.924Z,5.3
2018-02-27T07:58:26.575Z,5.6
2018-02-27T07:59:28.232Z,5.5
2018-02-27T08:00:29.906Z,5.1
2018-02-27T08:01:31.551Z,4.4
2018-02-27T08:02:33.208Z,5.1
2018-02-27T08:03:34.864Z,5.2
2018-02-27T08:04:36.528Z,4.8
2018-02-27T08:05:38.178Z,4.0
2018-02-27T08:06:39.836Z,4.1
2018-02-27T08:07:41.499Z,4.5
2018-02-27T08:08:43.147Z,4.1
2018-02-27T08:09:44.808Z,3.9
2018-02-27T08:10:46.467Z,4.0
2018-02-27T08:11:48.131Z,3.8
2018-02-27T08:12:49.781Z,4.4
2018-02-27T08:13:51.472Z,4.0
2018-02-27T08:14:53.114Z,4.0
2018-02-27T08:15:54.772Z,4.4
2018-02-27T08:16:56.421Z,4.2
2018-02-27T08:17:58.076Z,4.1
2018-02-27T08:18:59.738Z,3.5
2018-02-27T08:20:01.395Z,3.4
2018-02-27T08:21:03.043Z,3.3
2018-02-27T08:22:04.704Z,3.9
2018-02-27T08:23:06.360Z,4.5
2018-02-27T08:24:08.016Z,4.2
2018-02-27T08:25:09.671Z,3.6
2018-02-27T08:26:11.332Z,3.8
2018-02-27T08:27:12.982Z,4.2
2018-02-27T08:28:14.650Z,3.2
2018-02-27T08:29:16.301Z,3.4
2018-02-27T08:30:17.955Z,3.4
2018-02-27T08:31:19.613Z,3.7
2018-02-27T08:32:21.260Z,4.1
2018-02-27T08:33:22.920Z,3.9
2018-02-27T08:34:24.570Z,4.2
2018-02-27T08:35:26.224Z,3.3
2018-02-27T08:36:27.875Z,4.2
2018-02-27T08:37:29.536Z,4.0
2018-02-27T08:38:31.190Z,3.7
2018-02-27T08:39:32.847Z,4.0
2018-02-27T08:40:34.510Z,4.1
2018-02-27T08:41:36.170Z,3.7
2018-02-27T08:42:37.822Z,4.4
2018-02-27T08:43:39.475Z,3.5
2018-02-27T08:44:41.131Z,6.2
2018-02-27T08:45:42.783Z,5.8
2018-02-27T08:46:44.444Z,4.3
2018-02-27T08:47:46.104Z,3.9
2018-02-27T08:48:47.765Z,3.3
2018-02-27T08:49:49.431Z,4.3
2018-02-27T08:50:51.092Z,3.5
2018-02-27T08:51:52.750Z,3.5
2018-02-27T08:52:54.411Z,4.1
2018-02-27T08:53:56.077Z,3.9
2018-02-27T08:54:57.734Z,4.1
2018-02-27T08:55:59.393Z,3.5
2018-02-27T08:57:01.048Z,3.8
2018-02-27T08:58:02.726Z,3.7
2018-02-27T08:59:04.375Z,3.8
2018-02-27T09:00:06.044Z,3.2
2018-02-27T09:01:07.700Z,3.3
2018-02-27T09:02:09.351Z,3.6
2018-02-27T09:03:11.006Z,3.2
2018-02-27T09:04:12.666Z,4.1
2018-02-27T09:05:14.320Z,3.4
2018-02-27T09:06:15.985Z,3.1
2018-02-27T09:07:17.631Z,3.9
2018-02-27T09:08:19.286Z,3.5
2018-02-27T09:09:20.938Z,3.4
2018-02-27T09:10:22.597Z,3.8
2018-02-27T09:11:24.254Z,4.1
2018-02-27T09:12:25.904Z,4.3
2018-02-27T09:13:27.567Z,3.6
2018-02-27T09:14:29.222Z,3.5
2018-02-27T09:15:30.880Z,4.0
2018-02-27T09:16:32.538Z,3.4
2018-02-27T09:17:34.207Z,3.5
2018-02-27T09:18:35.865Z,3.1
2018-02-27T09:19:37.527Z,3.8
2018-02-27T09:20:39.191Z,3.4
2018-02-27T09:21:40.858Z,4.0
2018-02-27T09:22:42.542Z,3.1
2018-02-27T09:23:44.343Z,3.4
2018-02-27T09:24:46.005Z,3.4
2018-02-27T09:25:47.659Z,2.9
2018-02-27T09:26:49.313Z,3.1
2018-02-27T09:27:50.979Z,3.3
2018-02-27T09:28:52.629Z,3.1
2018-02-27T09:29:54.304Z,2.7
2018-02-27T09:30:55.972Z,3.3
2018-02-27T09:31:57.624Z,2.9
2018-02-27T09:32:59.285Z,2.8
2018-02-27T09:34:00.960Z,3.1
2018-02-27T09:35:02.676Z,3.1
2018-02-27T09:36:04.290Z,3.2
2018-02-27T09:37:05.947Z,3.0
2018-02-27T09:38:07.631Z,3.3
2018-02-27T09:39:09.307Z,3.2
2018-02-27T09:40:11.031Z,3.1
2018-02-27T09:41:12.790Z,2.4
2018-02-27T09:42:14.445Z,2.8
2018-02-27T09:43:16.108Z,2.8
2018-02-27T09:44:17.765Z,3.0
2018-02-27T09:45:19.430Z,3.0
2018-02-27T09:46:21.089Z,2.9
2018-02-27T09:47:22.755Z,2.9
2018-02-27T09:48:24.405Z,2.6
2018-02-27T09:49:26.063Z,2.8
2018-02-27T09:50:27.725Z,3.0
2018-02-27T09:51:29.396Z,2.9
2018-02-27T09:52:31.089Z,2.2
2018-02-27T09:53:32.745Z,2.5
2018-02-27T09:54:34.408Z,3.6
2018-02-27T09:55:36.079Z,3.2
2018-02-27T09:56:37.738Z,3.1
2018-02-27T09:57:39.395Z,2.9
2018-02-27T09:58:41.100Z,3.4
2018-02-27T09:59:42.720Z,2.9
2018-02-27T10:00:44.381Z,3.4
2018-02-27T10:01:46.035Z,3.0
2018-02-27T10:02:47.759Z,2.6
2018-02-27T10:03:49.419Z,2.7
2018-02-27T10:04:51.079Z,3.4
2018-02-27T10:05:52.773Z,3.2
2018-02-27T10:06:54.406Z,2.7
2018-02-27T10:07:56.064Z,3.1
2018-02-27T10:08:57.720Z,3.2
2018-02-27T10:09:59.384Z,3.4
2018-02-27T10:11:01.047Z,3.0
2018-02-27T10:12:02.729Z,3.7
2018-02-27T10:13:04.366Z,3.8
2018-02-27T10:14:06.031Z,3.2
2018-02-27T10:15:07.694Z,2.6
2018-02-27T10:16:09.343Z,2.8
2018-02-27T10:17:11.046Z,3.1
2018-02-27T10:18:12.663Z,3.2
2018-02-27T10:19:14.334Z,3.5
2018-02-27T10:20:16.003Z,3.3
2018-02-27T10:21:17.666Z,3.0
2018-02-27T10:22:19.328Z,2.8
2018-02-27T10:23:20.985Z,3.4
2018-02-27T10:24:22.645Z,2.8
2018-02-27T10:25:24.309Z,3.2
2018-02-27T10:26:25.978Z,3.2
2018-02-27T10:27:27.667Z,3.4
2018-02-27T10:28:29.304Z,3.5
2018-02-27T10:29:30.957Z,3.8
2018-02-27T10:30:32.642Z,3.0
2018-02-27T10:31:34.306Z,2.7
2018-02-27T10:32:35.976Z,2.9
2018-02-27T10:33:37.635Z,3.1
2018-02-27T10:34:39.296Z,3.2
2018-02-27T10:35:40.962Z,3.5
2018-02-27T10:36:42.613Z,3.0
2018-02-27T10:37:44.286Z,3.0
2018-02-27T10:38:45.924Z,3.0
2018-02-27T10:39:47.583Z,2.7
2018-02-27T10:40:49.249Z,2.7
2018-02-27T10:41:50.906Z,3.0
2018-02-27T10:42:52.576Z,3.5
2018-02-27T10:43:54.247Z,2.5
2018-02-27T10:44:55.907Z,2.4
2018-02-27T10:45:57.574Z,2.4
2018-02-27T10:46:59.233Z,3.1
2018-02-27T10:48:00.914Z,2.2
2018-02-27T10:49:02.574Z,2.5
2018-02-27T10:50:04.229Z,3.1
2018-02-27T10:51:05.893Z,2.2
2018-02-27T10:52:07.550Z,3.0
2018-02-27T10:53:09.206Z,2.6
2018-02-27T10:54:10.874Z,2.6
2018-02-27T10:55:12.525Z,2.5
2018-02-27T11:01:43.940Z,1.9
2018-02-27T11:02:45.607Z,2.1
2018-02-27T11:03:47.255Z,3.0
2018-02-27T11:04:48.944Z,2.6
2018-02-27T11:05:50.597Z,3.2
2018-02-27T11:06:52.250Z,2.4
2018-02-27T11:07:53.915Z,2.9
2018-02-27T11:08:55.561Z,2.7
2018-02-27T11:09:57.227Z,2.7
2018-02-27T11:10:58.878Z,2.8
2018-02-27T11:12:00.535Z,3.0
2018-02-27T11:13:02.182Z,2.7
2018-02-27T11:14:03.851Z,3.0
2018-02-27T11:15:05.504Z,2.8
2018-02-27T11:16:07.154Z,2.4
2018-02-27T11:17:08.816Z,2.5
2018-02-27T11:18:10.467Z,3.3
2018-02-27T11:19:12.126Z,3.3
2018-02-27T11:20:13.779Z,2.4
2018-02-27T11:21:15.440Z,2.7
2018-02-27T11:22:17.097Z,2.5
2018-02-27T11:23:18.759Z,2.0
2018-02-27T11:24:20.427Z,2.4
2018-02-27T11:25:22.080Z,2.5
2018-02-27T11:26:23.764Z,2.4
2018-02-27T11:27:25.405Z,2.3
2018-02-27T11:28:27.058Z,2.5
2018-02-27T11:29:28.733Z,2.6
2018-02-27T11:30:30.387Z,1.9
2018-02-27T11:31:32.037Z,2.5
2018-02-27T11:32:33.691Z,2.9
2018-02-27T11:33:35.361Z,2.6
2018-02-27T11:34:37.016Z,2.5
2018-02-27T11:35:38.682Z,3.0
2018-02-27T11:36:40.340Z,2.6
2018-02-27T11:37:42.001Z,2.3
2018-02-27T11:38:43.672Z,2.1
2018-02-27T11:39:45.329Z,2.7
2018-02-27T11:40:46.990Z,2.3
2018-02-27T11:41:48.665Z,2.9
2018-02-27T11:42:50.389Z,2.8
2018-02-27T11:43:52.052Z,3.3
2018-02-27T11:44:53.711Z,2.7
2018-02-27T11:45:55.372Z,3.2
2018-02-27T11:46:57.030Z,2.8
2018-02-27T11:47:58.693Z,2.7
2018-02-27T11:49:00.348Z,2.6
2018-02-27T11:50:02.013Z,2.7
2018-02-27T11:51:03.678Z,2.5
2018-02-27T11:52:05.340Z,2.5
2018-02-27T11:53:06.996Z,3.0
2018-02-27T11:54:08.657Z,3.1
2018-02-27T11:55:10.321Z,3.3
2018-02-27T11:56:11.977Z,2.9
2018-02-27T11:57:13.637Z,3.0
2018-02-27T11:58:15.294Z,3.1
2018-02-27T11:59:16.957Z,2.8
2018-02-27T12:00:18.626Z,2.5
2018-02-27T12:01:20.275Z,2.9
2018-02-27T12:02:21.961Z,2.6
2018-02-27T12:03:23.592Z,2.9
2018-02-27T12:04:25.262Z,2.5
2018-02-27T12:05:26.902Z,2.6
2018-02-27T12:06:28.566Z,2.8
2018-02-27T12:07:30.215Z,2.7
2018-02-27T12:08:31.879Z,2.5
2018-02-27T12:09:33.548Z,3.0
2018-02-27T12:10:35.212Z,3.0
2018-02-27T12:11:36.865Z,2.7
2018-02-27T12:12:38.539Z,2.6
2018-02-27T12:13:40.246Z,2.4
2018-02-27T12:14:41.856Z,4.1
2018-02-27T12:15:43.512Z,3.0
2018-02-27T12:16:45.182Z,3.0
2018-02-27T12:17:46.847Z,3.3
2018-02-27T12:18:48.512Z,4.4
2018-02-27T12:19:50.176Z,3.1
2018-02-27T12:20:51.836Z,2.7
2018-02-27T12:21:53.489Z,2.8
2018-02-27T12:22:55.158Z,2.7
2018-02-27T12:23:56.825Z,2.8
2018-02-27T12:24:58.476Z,2.7
2018-02-27T12:26:00.131Z,2.9
2018-02-27T12:27:01.806Z,2.9
2018-02-27T12:28:03.464Z,2.6
2018-02-27T12:29:05.117Z,2.2
2018-02-27T12:30:06.805Z,2.8
2018-02-27T12:31:08.441Z,2.9
2018-02-27T12:32:10.110Z,2.8
2018-02-27T12:33:11.763Z,3.0
2018-02-27T12:34:13.442Z,2.6
2018-02-27T12:35:15.096Z,2.5
2018-02-27T12:36:16.763Z,3.2
2018-02-27T12:37:18.424Z,3.3
2018-02-27T12:38:20.078Z,2.7
2018-02-27T12:39:21.735Z,2.8
2018-02-27T12:40:23.397Z,2.6
2018-02-27T12:41:25.047Z,2.8
2018-02-27T12:42:26.705Z,2.8
2018-02-27T12:43:28.369Z,2.3
2018-02-27T12:44:30.025Z,2.9
2018-02-27T12:45:31.678Z,2.8
2018-02-27T12:46:33.333Z,3.1
2018-02-27T12:47:35.197Z,2.6
2018-02-27T12:48:36.846Z,2.6
2018-02-27T12:49:38.512Z,2.3
2018-02-27T12:50:40.161Z,2.1
2018-02-27T12:51:41.826Z,2.9
2018-02-27T12:52:43.497Z,2.9
2018-02-27T12:53:45.161Z,2.8
2018-02-27T12:54:46.922Z,2.2
2018-02-27T12:55:48.587Z,2.6
2018-02-27T12:56:50.263Z,2.8
2018-02-27T12:57:51.919Z,1.8
2018-02-27T12:58:53.585Z,2.5
2018-02-27T12:59:55.250Z,2.4
2018-02-27T13:00:56.915Z,2.6
2018-02-27T13:01:58.577Z,2.0
2018-02-27T13:03:00.245Z,2.3
2018-02-27T13:04:01.920Z,2.6
2018-02-27T13:05:04.207Z,2.9
2018-02-27T13:06:05.867Z,2.6
2018-02-27T13:07:08.154Z,2.8
2018-02-27T13:08:09.757Z,2.4
2018-02-27T13:09:11.419Z,2.9
2018-02-27T13:10:13.081Z,2.9
2018-02-27T13:11:14.732Z,3.0
2018-02-27T13:12:16.398Z,3.1
2018-02-27T13:13:18.053Z,2.3
2018-02-27T13:14:19.719Z,2.4
2018-02-27T13:15:21.378Z,2.3
2018-02-27T13:16:23.046Z,2.4
2018-02-27T13:17:24.706Z,2.9
2018-02-27T13:18:26.372Z,2.7
2018-02-27T13:19:28.043Z,4.0
2018-02-27T13:20:29.701Z,3.3
2018-02-27T13:21:31.358Z,3.0
2018-02-27T13:22:33.020Z,2.9
2018-02-27T13:23:34.691Z,2.9
2018-02-27T13:24:36.348Z,3.4
2018-02-27T13:25:38.007Z,5.1
2018-02-27T13:26:39.657Z,2.8
2018-02-27T13:27:41.314Z,2.6
2018-02-27T13:28:42.978Z,3.6
2018-02-27T13:29:44.641Z,2.4
2018-02-27T13:30:46.298Z,2.8
2018-02-27T13:31:47.959Z,2.8
2018-02-27T13:32:49.616Z,3.0
2018-02-27T13:33:51.278Z,3.0
2018-02-27T13:34:52.941Z,2.8
2018-02-27T13:35:54.618Z,2.5
2018-02-27T13:36:56.272Z,2.9
2018-02-27T13:37:57.934Z,1.8
2018-02-27T13:38:59.584Z,2.4
2018-02-27T13:40:01.255Z,2.2
2018-02-27T13:41:02.910Z,3.2
2018-02-27T13:42:04.570Z,7.0
2018-02-27T13:43:06.233Z,3.0
2018-02-27T13:44:07.892Z,2.6
2018-02-27T13:45:09.556Z,2.6
2018-02-27T13:46:11.206Z,3.0
2018-02-27T13:47:12.887Z,3.0
2018-02-27T13:48:14.544Z,2.5
2018-02-27T13:49:16.200Z,4.2
2018-02-27T13:50:17.863Z,4.1
2018-02-27T13:51:20.353Z,2.7
2018-02-27T13:52:22.066Z,4.2
2018-02-27T13:53:23.673Z,3.5
2018-02-27T13:54:25.334Z,3.4
2018-02-27T13:55:26.984Z,3.0
2018-02-27T13:56:28.644Z,3.3
2018-02-27T13:57:30.311Z,2.6
2018-02-27T13:58:31.970Z,3.5
2018-02-27T13:59:33.647Z,2.8
2018-02-27T14:00:35.311Z,4.7
2018-02-27T14:01:36.979Z,2.8
2018-02-27T14:02:38.667Z,3.6
2018-02-27T14:03:40.302Z,2.7
2018-02-27T14:04:41.966Z,3.0
2018-02-27T14:05:43.627Z,7.8
2018-02-27T14:06:45.287Z,2.7
2018-02-27T14:07:46.960Z,3.4
2018-02-27T14:08:48.629Z,2.2
2018-02-27T14:09:50.296Z,2.3
2018-02-27T14:10:51.955Z,2.9
2018-02-27T14:11:53.608Z,2.4
2018-02-27T14:12:55.769Z,2.7
2018-02-27T14:13:57.413Z,3.6
2018-02-27T14:14:59.076Z,2.3
2018-02-27T14:16:00.731Z,2.3
2018-02-27T14:17:03.218Z,2.4
2018-02-27T14:18:04.880Z,2.6
2018-02-27T14:19:06.528Z,3.1
2018-02-27T14:20:08.197Z,2.9
2018-02-27T14:21:09.865Z,2.7
2018-02-27T14:22:11.513Z,2.8